Time,TemperatureF,DewpointF,PressureIn,WindDirection,WindDirectionDegrees,WindSpeedMPH,WindSpeedGustMPH,Humidity,HourlyPrecipIn,Conditions,Clouds,dailyrainin,SoftwareType,DateUTC
2013-06-02 00:00:00,61.6,42.2,30.01,ENE,61,3.0,9.0,49,0.00,CLR,,0.00,WeatherDisplay:10.37,2013-06-02 08:00:00,
2013-06-02 00:15:00,60.9,42.6,30.01,ENE,59,3.0,10.0,51,0.00,CLR,,0.00,WeatherDisplay:10.37,2013-06-02 08:15:00,
2013-06-02 00:30:00,60.5,42.8,30.01,NE,56,3.0,9.0,52,0.00,CLR,,0.00,WeatherDisplay:10.37,2013-06-02 08:30:00,
2013-06-02 00:45:00,59.9,42.7,30.01,NE,53,3.0,8.0,53,0.00,CLR,,0.00,WeatherDisplay:10.37,2013-06-02 08:45:00,
2013-06-02 01:00:00,59.4,42.7,30.01,NE,52,3.0,8.0,54,0.00,CLR,,0.00,WeatherDisplay:10.37,2013-06-02 09:00:00,
2013-06-02 01:15:00,59.0,43.3,30.01,ENE,57,3.0,9.0,56,0.00,CLR,,0.00,WeatherDisplay:10.37,2013-06-02 09:15:00,
2013-06-02 01:30:00,58.7,43.5,30.01,NE,52,3.0,9.0,57,0.00,CLR,,0.00,WeatherDisplay:10.37,2013-06-02 09:30:00,
2013-06-02 01:45:00,58.3,43.1,30.01,NE,53,2.0,8.0,57,0.00,CLR,,0.00,WeatherDisplay:10.37,2013-06-02 09:45:00,
2013-06-02 02:00:00,58.1,43.4,30.01,NE,54,1.0,6.0,58,0.00,CLR,,0.00,WeatherDisplay:10.37,2013-06-02 10:00:00,
2013-06-02 02:15:00,57.8,43.5,30.01,NE,55,2.0,6.0,59,0.00,CLR,,0.00,WeatherDisplay:10.37,2013-06-02 10:15:00,
2013-06-02 02:30:00,57.4,43.7,30.01,NE,54,3.0,6.0,60,0.00,CLR,,0.00,WeatherDisplay:10.37,2013-06-02 10:30:00,
2013-06-02 02:45:00,57.4,43.6,30.01,NE,53,2.0,6.0,60,0.00,CLR,,0.00,WeatherDisplay:10.37,2013-06-02 10:45:00,
2013-06-02 03:00:00,57.4,43.6,30.01,ENE,58,2.0,7.0,60,0.00,CLR,,0.00,WeatherDisplay:10.37,2013-06-02 11:00:00,
2013-06-02 03:15:00,57.2,43.9,30.01,NE,55,3.0,7.0,61,0.00,CLR,,0.00,WeatherDisplay:10.37,2013-06-02 11:15:00,
2013-06-02 03:30:00,56.9,43.6,30.01,ENE,59,3.0,7.0,61,0.00,CLR,,0.00,WeatherDisplay:10.37,2013-06-02 11:30:00,
2013-06-02 03:45:00,56.8,43.5,30.01,ENE,63,2.0,6.0,61,0.00,CLR,,0.00,WeatherDisplay:10.37,2013-06-02 11:45:00,
2013-06-02 04:00:00,56.6,43.7,30.01,ENE,62,0.0,7.0,62,0.00,CLR,,0.00,WeatherDisplay:10.37,2013-06-02 12:00:00,
2013-06-02 04:15:00,56.4,43.5,30.01,ENE,64,0.0,0.0,62,0.00,CLR,,0.00,WeatherDisplay:10.37,2013-06-02 12:15:00,
2013-06-02 04:30:00,56.2,43.7,30.01,ENE,64,0.0,0.0,63,0.00,CLR,,0.00,WeatherDisplay:10.37,2013-06-02 12:30:00,
2013-06-02 04:45:00,55.9,43.5,30.01,ENE,64,0.0,0.0,63,0.00,CLR,,0.00,WeatherDisplay:10.37,2013-06-02 12:45:00,
2013-06-02 05:00:00,55.7,43.7,30.00,ENE,64,0.0,0.0,64,0.00,CLR,,0.00,WeatherDisplay:10.37,2013-06-02 13:00:00,
2013-06-02 05:15:00,55.8,43.8,30.00,ENE,64,0.0,0.0,64,0.00,CLR,,0.00,WeatherDisplay:10.37,2013-06-02 13:15:00,
2013-06-02 05:30:00,55.7,44.2,30.00,ENE,64,0.0,0.0,65,0.00,CLR,,0.00,WeatherDisplay:10.37,2013-06-02 13:30:00,
2013-06-02 05:45:00,56.0,44.4,30.00,ENE,64,0.0,0.0,65,0.00,CLR,,0.00,WeatherDisplay:10.37,2013-06-02 13:45:00,
2013-06-02 06:00:00,56.4,44.8,30.00,ENE,64,0.0,0.0,65,0.00,CLR,,0.00,WeatherDisplay:10.37,2013-06-02 14:00:00,
2013-06-02 06:15:00,56.7,45.0,30.00,ENE,64,0.0,0.0,65,0.00,CLR,,0.00,WeatherDisplay:10.37,2013-06-02 14:15:00,
2013-06-02 06:30:00,56.9,45.7,30.00,ENE,64,0.0,0.0,66,0.00,CLR,,0.00,WeatherDisplay:10.37,2013-06-02 14:30:00,
2013-06-02 06:45:00,57.2,45.9,30.00,ENE,66,2.0,4.0,66,0.00,CLR,,0.00,WeatherDisplay:10.37,2013-06-02 14:45:00,
2013-06-02 07:00:00,57.3,46.4,30.00,ENE,66,1.0,5.0,67,0.00,CLR,,0.00,WeatherDisplay:10.37,2013-06-02 15:00:00,
2013-06-02 07:15:00,57.4,46.9,30.00,ESE,103,0.0,3.0,68,0.00,CLR,,0.00,WeatherDisplay:10.37,2013-06-02 15:15:00,
2013-06-02 07:30:00,58.0,47.1,30.00,ESE,103,0.0,0.0,67,0.00,CLR,,0.00,WeatherDisplay:10.37,2013-06-02 15:30:00,
2013-06-02 07:45:00,58.4,47.1,30.00,ESE,103,0.0,0.0,66,0.00,CLR,,0.00,WeatherDisplay:10.37,2013-06-02 15:45:00,
2013-06-02 08:00:00,59.2,47.0,30.00,ESE,103,0.0,0.0,64,0.00,CLR,,0.00,WeatherDisplay:10.37,2013-06-02 16:00:00,
2013-06-02 08:15:00,60.1,47.5,30.00,ESE,103,0.0,0.0,63,0.00,CLR,,0.00,WeatherDisplay:10.37,2013-06-02 16:15:00,
2013-06-02 08:30:00,60.9,47.8,30.00,ESE,103,0.0,0.0,62,0.00,CLR,,0.00,WeatherDisplay:10.37,2013-06-02 16:30:00,
2013-06-02 08:45:00,62.0,48.4,30.00,ESE,103,0.0,0.0,61,0.00,CLR,,0.00,WeatherDisplay:10.37,2013-06-02 16:45:00,
2013-06-02 09:00:00,63.6,48.1,30.00,NE,45,2.0,5.0,57,0.00,CLR,,0.00,WeatherDisplay:10.37,2013-06-02 17:00:00,
2013-06-02 09:15:00,65.0,47.5,30.00,ENE,71,2.0,7.0,53,0.00,CLR,,0.00,WeatherDisplay:10.37,2013-06-02 17:15:00,
2013-06-02 09:30:00,65.8,47.7,29.99,WNW,303,1.0,6.0,52,0.00,CLR,,0.00,WeatherDisplay:10.37,2013-06-02 17:30:00,
2013-06-02 09:45:00,66.0,47.9,29.99,WSW,256,0.0,2.0,52,0.00,CLR,,0.00,WeatherDisplay:10.37,2013-06-02 17:45:00,
2013-06-02 10:00:00,66.6,47.3,29.99,East,101,0.0,5.0,50,0.00,CLR,,0.00,WeatherDisplay:10.37,2013-06-02 18:00:00,
2013-06-02 10:15:00,67.3,46.9,29.99,NNE,33,0.0,5.0,48,0.00,CLR,,0.00,WeatherDisplay:10.37,2013-06-02 18:15:00,
2013-06-02 10:30:00,67.4,48.1,29.99,SW,229,1.0,5.0,50,0.00,CLR,,0.00,WeatherDisplay:10.37,2013-06-02 18:30:00,
2013-06-02 10:45:00,67.9,48.1,29.99,WSW,244,2.0,5.0,49,0.00,CLR,,0.00,WeatherDisplay:10.37,2013-06-02 18:45:00,
2013-06-02 11:00:00,67.9,47.5,29.98,WSW,253,2.0,6.0,48,0.00,CLR,,0.00,WeatherDisplay:10.37,2013-06-02 19:00:00,
2013-06-02 11:15:00,68.3,47.8,29.98,SW,236,3.0,7.0,48,0.00,CLR,,0.00,WeatherDisplay:10.37,2013-06-02 19:15:00,
2013-06-02 11:30:00,69.1,48.0,29.97,SSE,152,0.0,7.0,47,0.00,CLR,,0.00,WeatherDisplay:10.37,2013-06-02 19:30:00,
2013-06-02 11:45:00,70.0,47.1,29.97,West,269,5.0,7.0,44,0.00,CLR,,0.00,WeatherDisplay:10.37,2013-06-02 19:45:00,
2013-06-02 12:00:00,70.3,46.7,29.96,West,281,3.0,7.0,43,0.00,CLR,,0.00,WeatherDisplay:10.37,2013-06-02 20:00:00,
2013-06-02 12:15:00,70.4,46.9,29.96,West,260,5.0,7.0,43,0.00,CLR,,0.00,WeatherDisplay:10.37,2013-06-02 20:15:00,
2013-06-02 12:30:00,70.7,46.5,29.96,SW,221,3.0,7.0,42,0.00,CLR,,0.00,WeatherDisplay:10.37,2013-06-02 20:30:00,
2013-06-02 12:45:00,71.1,46.2,29.95,SW,230,5.0,7.0,41,0.00,CLR,,0.00,WeatherDisplay:10.37,2013-06-02 20:45:00,
2013-06-02 13:00:00,71.8,46.2,29.95,SW,217,1.0,10.0,40,0.00,CLR,,0.00,WeatherDisplay:10.37,2013-06-02 21:00:00,
2013-06-02 13:15:00,72.7,45.6,29.95,WSW,257,3.0,8.0,38,0.00,CLR,,0.00,WeatherDisplay:10.37,2013-06-02 21:15:00,
2013-06-02 13:30:00,73.4,44.8,29.94,SW,215,5.0,9.0,36,0.00,CLR,,0.00,WeatherDisplay:10.37,2013-06-02 21:30:00,
2013-06-02 13:45:00,74.3,44.8,29.94,ENE,76,1.0,9.0,35,0.00,CLR,,0.00,WeatherDisplay:10.37,2013-06-02 21:45:00,
2013-06-02 14:00:00,74.6,44.3,29.93,SSW,195,3.0,8.0,34,0.00,CLR,,0.00,WeatherDisplay:10.37,2013-06-02 22:00:00,
2013-06-02 14:15:00,74.4,44.2,29.93,West,278,1.0,7.0,34,0.00,CLR,,0.00,WeatherDisplay:10.37,2013-06-02 22:15:00,
2013-06-02 14:30:00,75.3,45.0,29.92,SE,130,1.0,5.0,34,0.00,CLR,,0.00,WeatherDisplay:10.37,2013-06-02 22:30:00,
2013-06-02 14:45:00,74.9,44.6,29.92,WSW,246,1.0,9.0,34,0.00,CLR,,0.00,WeatherDisplay:10.37,2013-06-02 22:45:00,
2013-06-02 15:00:00,75.4,43.5,29.91,WNW,286,1.0,9.0,32,0.00,CLR,,0.00,WeatherDisplay:10.37,2013-06-02 23:00:00,
2013-06-02 15:15:00,76.1,44.9,29.91,SW,228,2.0,12.0,33,0.00,CLR,,0.00,WeatherDisplay:10.37,2013-06-02 23:15:00,
2013-06-02 15:30:00,76.4,44.4,29.90,SW,214,5.0,9.0,32,0.00,CLR,,0.00,WeatherDisplay:10.37,2013-06-02 23:30:00,
2013-06-02 15:45:00,76.9,43.1,29.89,WNW,297,6.0,9.0,30,0.00,CLR,,0.00,WeatherDisplay:10.37,2013-06-02 23:45:00,
2013-06-02 17:15:00,76.9,42.2,29.86,West,262,5.0,12.0,29,0.00,CLR,,0.00,WeatherDisplay:10.37,2013-06-03 01:15:00,
2013-06-02 17:30:00,76.9,44.0,29.85,WNW,283,3.0,10.0,31,0.00,CLR,,0.00,WeatherDisplay:10.37,2013-06-03 01:30:00,
2013-06-02 17:45:00,76.9,43.1,29.85,West,273,6.0,11.0,30,0.00,CLR,,0.00,WeatherDisplay:10.37,2013-06-03 01:45:00,
2013-06-02 18:00:00,76.9,42.2,29.85,WNW,299,5.0,12.0,29,0.00,CLR,,0.00,WeatherDisplay:10.37,2013-06-03 02:00:00,
2013-06-02 18:15:00,76.9,41.3,29.84,WNW,301,7.0,10.0,28,0.00,CLR,,0.00,WeatherDisplay:10.37,2013-06-03 02:15:00,
2013-06-02 18:30:00,76.9,41.3,29.84,WNW,283,5.0,12.0,28,0.00,CLR,,0.00,WeatherDisplay:10.37,2013-06-03 02:30:00,
2013-06-02 18:45:00,76.9,42.2,29.83,WNW,289,6.0,14.0,29,0.00,CLR,,0.00,WeatherDisplay:10.37,2013-06-03 02:45:00,
2013-06-02 19:00:00,76.8,42.1,29.83,WNW,287,3.0,13.0,29,0.00,CLR,,0.00,WeatherDisplay:10.37,2013-06-03 03:00:00,
2013-06-02 19:15:00,76.4,41.8,29.83,WNW,293,5.0,13.0,29,0.00,CLR,,0.00,WeatherDisplay:10.37,2013-06-03 03:15:00,
2013-06-02 19:30:00,75.5,41.9,29.83,WNW,297,2.0,10.0,30,0.00,CLR,,0.00,WeatherDisplay:10.37,2013-06-03 03:30:00,
2013-06-02 19:45:00,74.6,42.0,29.82,WNW,295,3.0,10.0,31,0.00,CLR,,0.00,WeatherDisplay:10.37,2013-06-03 03:45:00,
2013-06-02 20:00:00,74.6,42.8,29.82,West,276,3.0,12.0,32,0.00,CLR,,0.00,WeatherDisplay:10.37,2013-06-03 04:00:00,
2013-06-02 20:15:00,74.8,42.1,29.82,WNW,295,2.0,13.0,31,0.00,CLR,,0.00,WeatherDisplay:10.37,2013-06-03 04:15:00,
2013-06-02 20:30:00,74.0,42.3,29.82,WNW,289,6.0,10.0,32,0.00,CLR,,0.00,WeatherDisplay:10.37,2013-06-03 04:30:00,
2013-06-02 20:45:00,73.2,41.5,29.82,WNW,287,6.0,10.0,32,0.00,CLR,,0.00,WeatherDisplay:10.37,2013-06-03 04:45:00,
2013-06-02 21:00:00,72.4,41.7,29.82,WNW,285,5.0,13.0,33,0.00,CLR,,0.00,WeatherDisplay:10.37,2013-06-03 05:00:00,
2013-06-02 21:15:00,71.7,41.1,29.82,WNW,288,2.0,9.0,33,0.00,CLR,,0.00,WeatherDisplay:10.37,2013-06-03 05:15:00,
2013-06-02 21:30:00,71.2,41.4,29.83,West,281,3.0,8.0,34,0.00,CLR,,0.00,WeatherDisplay:10.37,2013-06-03 05:30:00,
2013-06-02 21:45:00,70.6,40.1,29.83,WNW,285,5.0,10.0,33,0.00,CLR,,0.00,WeatherDisplay:10.37,2013-06-03 05:45:00,
2013-06-02 22:00:00,70.0,40.4,29.83,West,272,1.0,7.0,34,0.00,CLR,,0.00,WeatherDisplay:10.37,2013-06-03 06:00:00,
2013-06-02 22:15:00,69.2,46.4,29.83,SW,233,5.0,13.0,44,0.00,CLR,,0.00,WeatherDisplay:10.37,2013-06-03 06:15:00,
2013-06-02 22:30:00,66.0,48.4,29.84,WSW,241,9.0,17.0,53,0.00,CLR,,0.00,WeatherDisplay:10.37,2013-06-03 06:30:00,
2013-06-02 22:45:00,63.3,48.3,29.84,WSW,244,7.0,20.0,58,0.00,CLR,,0.00,WeatherDisplay:10.37,2013-06-03 06:45:00,
2013-06-02 23:00:00,61.8,48.2,29.84,WSW,250,10.0,17.0,61,0.00,CLR,,0.00,WeatherDisplay:10.37,2013-06-03 07:00:00,
2013-06-02 23:15:00,60.9,48.7,29.85,WSW,247,8.0,15.0,64,0.00,CLR,,0.00,WeatherDisplay:10.37,2013-06-03 07:15:00,
2013-06-02 23:30:00,60.0,48.7,29.86,WSW,246,8.0,18.0,66,0.00,CLR,,0.00,WeatherDisplay:10.37,2013-06-03 07:30:00,
2013-06-02 23:45:00,59.3,48.7,29.86,WSW,255,8.0,13.0,68,0.00,CLR,,0.00,WeatherDisplay:10.37,2013-06-03 07:45:00,